Time;durP1;ratioP1;P1;durP2;ratioP2;P2;SDS_P1;SDS_P2;PMS_P1;PMS_P2;Temp;Humidity;BMP_temperature;BMP_pressure;BME280_temperature;BME280_humidity;BME280_pressure;Samples;Min_cycle;Max_cycle;Signal;HPM_P1;HPM_P2
2022/06/23 00:02:24;;;;;;;16.77;8.30;;;;;;;18.21;100.00;98606.03;5049636;27;20489;-80
2022/06/23 00:04:54;;;;;;;16.95;8.48;;;;;;;18.17;100.00;98601.28;5029987;28;20049;-80
2022/06/23 00:07:25;;;;;;;14.82;8.35;;;;;;;18.09;100.00;98604.44;5029650;28;20057;-80
2022/06/23 00:09:53;;;;;;;20.10;8.88;;;;;;;18.14;100.00;98585.28;5029299;28;20493;-80
2022/06/23 00:12:24;;;;;;;17.35;8.13;;;;;;;18.19;100.00;98599.13;5028933;28;20512;-80
2022/06/23 00:14:54;;;;;;;15.65;8.30;;;;;;;18.08;100.00;98592.63;5028506;28;20062;-81
2022/06/23 00:17:26;;;;;;;15.18;8.00;;;;;;;18.03;100.00;98590.59;5029551;28;20046;-80
2022/06/23 00:19:54;;;;;;;17.05;7.75;;;;;;;17.89;100.00;98566.41;5029512;28;20076;-80
2022/06/23 00:22:25;;;;;;;15.88;8.73;;;;;;;18.08;100.00;98602.78;5028742;28;20076;-81
2022/06/23 00:24:55;;;;;;;15.32;7.78;;;;;;;18.03;100.00;98598.84;5029524;28;20049;-81
2022/06/23 00:27:26;;;;;;;16.77;8.02;;;;;;;18.05;100.00;98598.63;5029715;28;20057;-80
2022/06/23 00:29:53;;;;;;;18.80;8.15;;;;;;;18.06;100.00;98597.53;5029323;28;20057;-81
2022/06/23 00:32:20;;;;;;;11.82;7.15;;;;;;;17.90;100.00;98574.44;5028837;28;20380;-81
2022/06/23 00:34:58;;;;;;;15.38;8.00;;;;;;;17.97;100.00;98583.34;5029340;28;20049;-81
2022/06/23 00:37:26;;;;;;;16.70;8.80;;;;;;;17.95;100.00;98587.44;5029502;28;20389;-81
2022/06/23 00:39:56;;;;;;;17.45;9.30;;;;;;;17.90;100.00;98579.94;5029281;28;20053;-81
2022/06/23 00:42:26;;;;;;;14.47;8.50;;;;;;;17.91;100.00;98584.31;5028839;28;20123;-80
2022/06/23 00:44:54;;;;;;;;;;;;;;;17.81;100.00;98595.94;5029613;28;20643;-80
2022/06/23 00:47:24;;;;;;;14.38;7.30;;;;;;;17.78;100.00;98588.19;5029371;28;19921;-81
2022/06/23 00:49:54;;;;;;;13.07;7.85;;;;;;;17.85;100.00;98583.38;5029130;28;20049;-81
2022/06/23 00:52:28;;;;;;;15.85;8.13;;;;;;;17.76;100.00;98573.03;5028059;28;20049;-80
2022/06/23 00:55:00;;;;;;;13.27;7.95;;;;;;;17.57;100.00;98575.97;5029360;28;20052;-81
2022/06/23 00:57:34;;;;;;;16.52;8.25;;;;;;;17.63;100.00;98591.50;5029177;28;20046;-81
2022/06/23 01:00:08;;;;;;;13.50;8.30;;;;;;;17.66;100.00;98596.50;5029025;28;20402;-81
2022/06/23 01:02:42;;;;;;;13.98;8.07;;;;;;;17.58;100.00;98587.78;5027000;28;20077;-81
2022/06/23 01:05:14;;;;;;;17.35;8.63;;;;;;;17.60;100.00;98607.63;5029011;27;20106;-81
2022/06/23 01:07:45;;;;;;;21.50;8.23;;;;;;;17.64;100.00;98597.81;5028854;28;20046;-80
2022/06/23 01:10:22;;;;;;;12.98;7.72;;;;;;;17.51;100.00;98599.78;5028901;28;20060;-81
2022/06/23 01:12:54;;;;;;;15.23;7.65;;;;;;;17.47;100.00;98615.06;5028089;28;20062;-81
2022/06/23 01:15:29;;;;;;;19.20;8.25;;;;;;;17.56;100.00;98611.94;5027593;28;20057;-80
2022/06/23 01:18:01;;;;;;;21.50;7.82;;;;;;;17.47;100.00;98612.31;5027540;28;20076;-80
2022/06/23 01:20:35;;;;;;;20.15;7.82;;;;;;;17.43;100.00;98613.06;5027989;28;20057;-80
2022/06/23 01:23:31;;;;;;;21.63;8.85;;;;;;;17.38;100.00;98610.22;5027944;27;20098;-81
2022/06/23 01:26:34;;;;;;;15.35;8.13;;;;;;;17.36;100.00;98610.44;5028460;28;20069;-80
2022/06/23 01:29:08;;;;;;;13.80;7.53;;;;;;;17.34;100.00;98602.44;5028549;28;20060;-80
2022/06/23 01:31:43;;;;;;;16.63;8.90;;;;;;;17.36;100.00;98606.84;5028822;28;20046;-80
2022/06/23 01:34:28;;;;;;;13.50;7.95;;;;;;;17.42;100.00;98605.88;5027538;28;20053;-80
2022/06/23 01:37:02;;;;;;;18.30;8.23;;;;;;;17.50;100.00;98606.34;5028519;28;20049;-80
2022/06/23 01:39:36;;;;;;;18.67;8.15;;;;;;;17.48;100.00;98615.91;5028579;28;20088;-80
2022/06/23 01:42:23;;;;;;;12.82;8.23;;;;;;;17.46;100.00;98624.41;5028070;28;20046;-80
2022/06/23 01:44:58;;;;;;;13.55;8.25;;;;;;;17.40;100.00;98624.53;5028462;28;20077;-80
2022/06/23 01:47:33;;;;;;;19.38;8.25;;;;;;;17.47;100.00;98636.22;5028568;28;20054;-80
2022/06/23 01:50:30;;;;;;;22.55;8.80;;;;;;;17.38;100.00;98638.50;5028287;27;20516;-80
2022/06/23 01:53:15;;;;;;;18.30;8.07;;;;;;;17.42;100.00;98634.22;5027588;28;20049;-80
2022/06/23 01:55:59;;;;;;;21.65;9.20;;;;;;;17.46;100.00;98638.16;5028325;28;20497;-80
2022/06/23 01:58:33;;;;;;;21.13;8.48;;;;;;;17.23;100.00;98635.44;5028368;28;20060;-80
2022/06/23 02:01:05;;;;;;;13.07;8.10;;;;;;;17.16;100.00;98638.28;5047678;27;20050;-80
2022/06/23 02:03:39;;;;;;;17.67;8.10;;;;;;;17.12;100.00;98648.13;5131324;27;20088;-80
2022/06/23 02:06:20;;;;;;;17.80;7.97;;;;;;;17.12;100.00;98651.69;5132082;27;20039;-80
2022/06/23 02:08:51;;;;;;;18.50;8.15;;;;;;;17.23;100.00;98649.16;5132172;27;20046;-80
2022/06/23 02:11:22;;;;;;;15.27;8.27;;;;;;;17.17;100.00;98637.22;5132037;27;20491;-80
2022/06/23 02:13:56;;;;;;;19.77;8.63;;;;;;;17.11;100.00;98635.44;5131295;27;20076;-80
2022/06/23 02:16:31;;;;;;;17.98;8.10;;;;;;;17.15;100.00;98637.47;5130991;27;20040;-80
2022/06/23 02:19:04;;;;;;;14.25;9.18;;;;;;;17.10;100.00;98647.50;5132270;27;20418;-80
2022/06/23 02:21:36;;;;;;;21.65;9.32;;;;;;;17.10;100.00;98645.63;5131976;27;20050;-80
2022/06/23 02:24:08;;;;;;;21.45;9.95;;;;;;;17.05;100.00;98639.16;5131278;27;20545;-80
2022/06/23 02:26:42;;;;;;;22.27;9.40;;;;;;;16.94;100.00;98635.34;5132241;27;20075;-80
2022/06/23 02:29:19;;;;;;;23.25;10.10;;;;;;;16.86;100.00;98639.25;5132053;27;20449;-79
2022/06/23 02:31:53;;;;;;;16.55;8.27;;;;;;;16.84;100.00;98646.06;5132155;27;20108;-80
2022/06/23 02:34:27;;;;;;;12.30;7.75;;;;;;;16.80;100.00;98631.97;5134880;27;20043;-80
2022/06/23 02:37:00;;;;;;;24.48;9.35;;;;;;;16.75;100.00;98645.56;5135524;27;20047;-80
2022/06/23 02:39:35;;;;;;;15.65;7.57;;;;;;;16.60;100.00;98646.84;5135767;27;20047;-80
2022/06/23 02:42:13;;;;;;;22.20;8.48;;;;;;;16.61;100.00;98651.28;5135204;27;20054;-79
2022/06/23 02:44:56;;;;;;;24.20;8.35;;;;;;;16.66;100.00;98647.81;5135678;27;20054;-79
2022/06/23 02:47:39;;;;;;;18.33;8.63;;;;;;;16.59;100.00;98653.44;5135464;27;20520;-79
2022/06/23 02:50:27;;;;;;;24.00;8.57;;;;;;;16.61;100.00;98651.28;5135557;27;20058;-79
2022/06/23 02:53:27;;;;;;;15.15;9.23;;;;;;;16.67;100.00;98656.91;5134629;27;20147;-80
2022/06/23 02:56:08;;;;;;;;;;;;;;;16.65;100.00;98654.41;5111068;27;20051;-79
2022/06/23 02:58:44;;;;;;;16.90;8.38;;;;;;;16.62;100.00;98661.19;5135293;27;19919;-80
2022/06/23 03:01:18;;;;;;;18.90;6.70;;;;;;;16.56;100.00;98655.81;5111009;27;20053;-79
2022/06/23 03:03:49;;;;;;;15.50;7.40;;;;;;;16.48;100.00;98653.41;5030514;28;20137;-79
2022/06/23 03:06:21;;;;;;;14.18;7.38;;;;;;;16.35;100.00;98662.69;5030882;28;20106;-79
2022/06/23 03:08:55;;;;;;;16.85;8.00;;;;;;;16.17;100.00;98642.50;5029712;28;20408;-79
2022/06/23 03:14:14;;;;;;;17.38;7.47;;;;;;;16.30;100.00;98659.81;5028518;28;20098;-79
2022/06/23 03:16:47;;;;;;;23.35;7.93;;;;;;;16.43;100.00;98676.06;5030349;28;20417;-79
2022/06/23 03:19:20;;;;;;;16.50;7.57;;;;;;;16.36;100.00;98665.19;5030356;28;20057;-79
2022/06/23 03:21:51;;;;;;;24.23;7.63;;;;;;;16.40;100.00;98673.81;5030539;28;20053;-80
2022/06/23 03:24:25;;;;;;;18.02;7.97;;;;;;;16.27;100.00;98661.97;5029692;28;20481;-79
2022/06/23 03:26:55;;;;;;;20.92;9.27;;;;;;;16.22;100.00;98674.69;5030436;28;20474;-79
2022/06/23 03:29:28;;;;;;;16.52;8.23;;;;;;;16.10;100.00;98677.41;5030524;28;20514;-79
2022/06/23 03:32:02;;;;;;;17.05;7.20;;;;;;;16.18;100.00;98689.94;5030194;28;20085;-79
2022/06/23 03:34:36;;;;;;;9.48;6.03;;;;;;;16.25;100.00;98691.50;5030234;28;20168;-79
2022/06/23 03:37:07;;;;;;;8.88;6.35;;;;;;;16.27;100.00;98683.06;5030179;28;20065;-79
2022/06/23 03:42:28;;;;;;;13.40;7.28;;;;;;;16.43;100.00;98690.63;5029481;28;20061;-79
2022/06/23 03:45:00;;;;;;;20.73;8.95;;;;;;;16.46;100.00;98689.31;5028457;28;20046;-79
2022/06/23 03:47:31;;;;;;;12.52;8.35;;;;;;;16.56;100.00;98688.72;5030174;28;20049;-79
2022/06/23 03:50:05;;;;;;;16.60;9.93;;;;;;;16.60;100.00;98685.28;5030034;28;20068;-79
2022/06/23 03:52:37;;;;;;;20.90;9.52;;;;;;;16.69;100.00;98701.41;5029394;28;20462;-79
2022/06/23 03:55:14;;;;;;;15.10;7.82;;;;;;;16.57;100.00;98699.47;5029907;28;20042;-78
2022/06/23 03:57:46;;;;;;;21.05;8.32;;;;;;;16.51;100.00;98699.59;5030151;28;20409;-78
2022/06/23 04:00:36;;;;;;;18.88;8.50;;;;;;;16.61;100.00;98719.88;5029563;28;20050;-78
2022/06/23 04:03:18;;;;;;;11.25;7.82;;;;;;;16.69;100.00;98715.97;5130169;27;20426;-78
2022/06/23 04:06:13;;;;;;;12.73;8.80;;;;;;;16.84;100.00;98706.44;5133977;27;20055;-79
2022/06/23 04:08:46;;;;;;;23.10;8.68;;;;;;;16.78;100.00;98703.56;5133886;27;20047;-79
2022/06/23 04:14:04;;;;;;;;;;;;;;;16.83;100.00;98702.03;5132411;27;20072;-79
2022/06/23 04:16:32;;;;;;;15.45;8.10;;;;;;;16.86;100.00;98705.16;5133547;27;19923;-79
2022/06/23 04:18:59;;;;;;;16.80;8.30;;;;;;;16.88;100.00;98711.25;5133640;27;20489;-79
2022/06/23 04:21:29;;;;;;;22.60;8.25;;;;;;;16.88;100.00;98713.19;5133808;27;20050;-79
2022/06/23 04:23:57;;;;;;;;;;;;;;;16.87;100.00;98711.50;5133280;27;20047;-79
2022/06/23 04:26:36;;;;;;;19.20;8.40;;;;;;;16.94;100.00;98699.31;5133671;27;20322;-79
2022/06/23 04:29:09;;;;;;;14.55;8.93;;;;;;;16.87;100.00;98670.31;5133310;27;20051;-79
2022/06/23 04:31:39;;;;;;;20.88;9.68;;;;;;;17.14;100.00;98706.38;5133543;27;20078;-79
2022/06/23 04:34:06;;;;;;;20.70;8.35;;;;;;;17.21;100.00;98698.84;5132604;27;20047;-79
2022/06/23 04:36:43;;;;;;;17.58;9.50;;;;;;;17.34;100.00;98703.25;5133203;27;20054;-79
2022/06/23 04:39:20;;;;;;;17.77;8.63;;;;;;;17.42;100.00;98697.41;5133295;27;20055;-79
2022/06/23 04:41:51;;;;;;;18.70;8.88;;;;;;;17.49;100.00;98694.50;5133237;27;20505;-79
2022/06/23 04:44:23;;;;;;;16.38;8.52;;;;;;;17.36;100.00;98689.28;5132387;27;20043;-79
2022/06/23 04:46:53;;;;;;;26.20;10.32;;;;;;;17.46;100.00;98690.34;5133097;27;20047;-79
2022/06/23 04:49:26;;;;;;;13.82;8.80;;;;;;;17.58;100.00;98689.47;5133007;27;20340;-79
2022/06/23 04:51:59;;;;;;;18.48;10.07;;;;;;;17.58;100.00;98686.72;5132777;27;20505;-79
2022/06/23 04:54:30;;;;;;;19.65;9.02;;;;;;;17.65;100.00;98701.19;5132255;27;20058;-79
2022/06/23 04:57:05;;;;;;;21.33;10.68;;;;;;;17.78;100.00;98702.81;5132643;27;20058;-79
2022/06/23 04:59:39;;;;;;;19.33;9.68;;;;;;;17.92;100.00;98692.41;5133006;27;20047;-79
2022/06/23 05:02:19;;;;;;;14.57;9.82;;;;;;;18.40;100.00;98697.47;5075827;27;20144;-79
2022/06/23 05:04:55;;;;;;;17.80;9.30;;;;;;;18.90;100.00;98698.59;5029032;28;20050;-79
2022/06/23 05:07:29;;;;;;;13.48;8.60;;;;;;;19.38;100.00;98701.81;5029026;28;20083;-79
2022/06/23 05:10:00;;;;;;;23.15;8.18;;;;;;;19.47;100.00;98707.72;5029057;28;20110;-79
2022/06/23 05:12:35;;;;;;;18.02;8.38;;;;;;;19.59;100.00;98715.88;5028269;28;20061;-79
2022/06/23 05:15:12;;;;;;;11.35;7.72;;;;;;;19.53;100.00;98716.91;5027552;28;20485;-79
2022/06/23 05:17:48;;;;;;;18.65;7.85;;;;;;;19.77;100.00;98718.38;5028979;28;20049;-79
2022/06/23 05:20:26;;;;;;;22.52;7.93;;;;;;;20.47;100.00;98720.53;5028749;28;20053;-79
2022/06/23 05:22:54;;;;;;;20.33;7.85;;;;;;;20.76;100.00;98726.66;5028053;28;20077;-79
2022/06/23 05:25:33;;;;;;;18.90;9.88;;;;;;;20.96;100.00;98714.13;5028863;28;20113;-79
2022/06/23 05:28:05;;;;;;;20.92;8.63;;;;;;;21.45;100.00;98730.47;5028579;28;20087;-79
2022/06/23 05:30:37;;;;;;;22.30;7.00;;;;;;;21.77;100.00;98729.59;5028592;28;20102;-79
2022/06/23 05:33:08;;;;;;;16.45;7.32;;;;;;;21.98;100.00;98727.75;5027808;28;20050;-79
2022/06/23 05:35:38;;;;;;;18.30;7.05;;;;;;;22.33;100.00;98726.22;5028610;28;20485;-79
2022/06/23 05:38:10;;;;;;;16.70;7.20;;;;;;;22.66;100.00;98724.09;5028563;28;20404;-79
2022/06/23 05:40:43;;;;;;;14.77;6.13;;;;;;;22.61;100.00;98724.06;5028554;28;20049;-79
2022/06/23 05:43:13;;;;;;;10.20;6.90;;;;;;;22.63;100.00;98719.91;5027540;28;20054;-79
2022/06/23 05:45:44;;;;;;;14.55;6.75;;;;;;;22.96;100.00;98727.97;5028692;28;20046;-79
2022/06/23 05:48:16;;;;;;;17.48;7.47;;;;;;;22.82;100.00;98724.91;5028201;28;20057;-79
2022/06/23 05:50:49;;;;;;;14.50;7.25;;;;;;;23.05;100.00;98722.69;5028378;28;20049;-79
2022/06/23 05:53:24;;;;;;;13.05;6.22;;;;;;;23.21;99.88;98732.69;5027737;28;20417;-79
2022/06/23 05:55:55;;;;;;;10.60;5.90;;;;;;;23.14;99.77;98718.31;5028156;28;20060;-79
2022/06/23 05:58:30;;;;;;;11.95;6.30;;;;;;;23.52;99.06;98720.75;5028193;28;20049;-79
2022/06/23 06:01:02;;;;;;;10.27;5.43;;;;;;;23.57;98.13;98716.00;5031366;28;20053;-79
2022/06/23 06:03:35;;;;;;;10.88;5.57;;;;;;;23.66;96.97;98730.94;5131307;27;20047;-79
2022/06/23 06:06:02;;;;;;;14.38;5.70;;;;;;;23.48;99.17;98726.81;5132375;27;20043;-79
2022/06/23 06:09:35;;;;;;;15.43;6.15;;;;;;;23.48;98.61;98726.00;5136265;27;20054;-79
2022/06/23 06:11:29;;;;;;;;;;;;;;;23.88;95.91;98721.50;5136304;27;20383;-80
2022/06/23 06:13:57;;;;;;;16.30;5.43;;;;;;;23.82;97.98;98723.41;5135384;27;19919;-80
2022/06/23 06:16:23;;;;;;;13.15;6.13;;;;;;;24.03;93.48;98718.66;5135789;27;20051;-80
2022/06/23 06:18:51;;;;;;;12.18;5.93;;;;;;;24.28;92.69;98730.72;5136155;27;20051;-79
2022/06/23 06:21:21;;;;;;;14.13;5.85;;;;;;;24.40;92.50;98730.38;5136161;27;20047;-79
2022/06/23 06:23:55;;;;;;;13.32;6.25;;;;;;;24.32;90.62;98712.38;5135264;27;20061;-80
2022/06/23 06:26:24;;;;;;;15.20;5.97;;;;;;;24.42;89.49;98716.22;5135836;27;20051;-80
2022/06/23 06:28:56;;;;;;;12.17;5.33;;;;;;;24.46;88.19;98728.41;5135716;27;20495;-80
2022/06/23 06:31:27;;;;;;;13.23;5.50;;;;;;;24.72;87.55;98731.88;5135735;27;20295;-80
2022/06/23 06:34:02;;;;;;;10.63;4.75;;;;;;;24.83;86.94;98727.09;5135193;27;20043;-80
2022/06/23 06:36:32;;;;;;;14.55;5.03;;;;;;;25.03;86.37;98724.13;5135942;27;20058;-80
2022/06/23 06:39:05;;;;;;;17.55;5.82;;;;;;;24.60;85.58;98717.53;5135508;27;20513;-80
2022/06/23 06:41:33;;;;;;;12.70;5.18;;;;;;;24.77;88.64;98742.97;5135722;27;20066;-80
2022/06/23 06:44:01;;;;;;;11.15;4.68;;;;;;;24.84;88.57;98731.53;5134611;27;20059;-81
2022/06/23 06:46:28;;;;;;;14.00;5.32;;;;;;;24.73;85.70;98730.78;5135680;27;20054;-81
2022/06/23 06:48:55;;;;;;;20.25;5.22;;;;;;;25.07;86.96;98733.56;5135438;27;20047;-81
2022/06/23 06:51:29;;;;;;;14.88;4.25;;;;;;;24.89;84.03;98721.19;5135351;27;20135;-81
2022/06/23 06:54:08;;;;;;;20.73;6.22;;;;;;;25.74;80.99;98749.66;5134479;27;20065;-81
2022/06/23 06:59:47;;;;;;;14.63;5.32;;;;;;;25.96;76.01;98720.44;5131316;27;20470;-81
2022/06/23 07:02:19;;;;;;;14.38;4.45;;;;;;;25.96;77.02;98721.25;5078904;27;20375;-81
2022/06/23 07:04:50;;;;;;;12.70;4.55;;;;;;;26.01;74.39;98741.84;5030872;28;20570;-81
2022/06/23 07:07:24;;;;;;;13.52;6.47;;;;;;;26.11;75.32;98739.75;5030807;28;20412;-80
2022/06/23 07:09:59;;;;;;;12.15;4.30;;;;;;;25.91;76.04;98748.31;5030511;28;20057;-80
2022/06/23 07:12:30;;;;;;;9.77;3.65;;;;;;;26.10;72.35;98740.88;5030157;28;20054;-81
2022/06/23 07:15:06;;;;;;;13.60;3.67;;;;;;;26.22;71.52;98743.25;5029052;28;20122;-80
2022/06/23 07:17:38;;;;;;;15.35;4.13;;;;;;;25.80;79.46;98739.28;5030155;28;20054;-80
2022/06/23 07:20:11;;;;;;;10.48;3.92;;;;;;;25.40;77.31;98744.97;5030081;28;20500;-80
2022/06/23 07:22:42;;;;;;;14.60;4.50;;;;;;;25.66;75.91;98729.97;5029883;28;20049;-80
2022/06/23 07:25:16;;;;;;;10.98;4.78;;;;;;;26.31;73.79;98733.09;5030076;28;20076;-80
2022/06/23 07:27:49;;;;;;;13.38;4.13;;;;;;;26.49;74.20;98736.19;5030588;28;20405;-80
2022/06/23 07:30:19;;;;;;;10.63;3.90;;;;;;;26.80;74.16;98733.00;5030181;28;20064;-80
2022/06/23 07:32:52;;;;;;;9.50;3.80;;;;;;;26.78;71.84;98727.72;5030079;28;20057;-79
2022/06/23 07:35:28;;;;;;;16.73;5.47;;;;;;;26.17;75.83;98723.00;5030076;28;20055;-79
2022/06/23 07:38:02;;;;;;;15.18;5.28;;;;;;;25.99;76.66;98724.63;5030243;28;20045;-79
2022/06/23 07:40:35;;;;;;;17.98;4.55;;;;;;;25.98;77.79;98720.97;5030381;28;20100;-79
2022/06/23 07:43:07;;;;;;;14.63;4.93;;;;;;;25.86;78.78;98715.00;5029549;28;20056;-79
2022/06/23 07:45:41;;;;;;;21.42;4.60;;;;;;;25.98;75.41;98715.38;5030276;28;20508;-79
2022/06/23 07:48:07;;;;;;;12.80;3.60;;;;;;;25.92;74.96;98713.78;5030036;28;20045;-78
2022/06/23 07:50:34;;;;;;;15.57;3.70;;;;;;;25.89;75.14;98723.56;5030084;28;20053;-79
2022/06/23 07:53:01;;;;;;;13.27;4.05;;;;;;;26.26;72.72;98713.66;5029115;28;20504;-78
2022/06/23 07:55:32;;;;;;;15.35;4.82;;;;;;;26.78;70.98;98715.72;5030225;28;20057;-79
2022/06/23 07:57:59;;;;;;;10.38;3.42;;;;;;;26.65;70.87;98708.94;5029924;28;20110;-79
2022/06/23 08:00:27;;;;;;;13.20;3.95;;;;;;;26.62;70.37;98718.72;5030314;28;20045;-79
2022/06/23 08:03:00;;;;;;;13.10;3.75;;;;;;;26.85;67.63;98714.19;5109353;27;20047;-79
2022/06/23 08:05:32;;;;;;;15.93;3.47;;;;;;;26.72;75.16;98714.97;5134118;27;20467;-78
2022/06/23 08:07:59;;;;;;;14.05;3.95;;;;;;;26.39;75.35;98714.03;5133764;27;20044;-78
2022/06/23 08:10:29;;;;;;;13.82;4.57;;;;;;;26.42;73.42;98713.44;5134042;27;20085;-78
2022/06/23 08:13:01;;;;;;;11.30;3.90;;;;;;;27.04;71.85;98705.00;5133051;27;20141;-78
2022/06/23 08:18:26;;;;;;;13.38;2.97;;;;;;;27.00;68.94;98701.16;5133623;27;20433;-78
2022/06/23 08:21:00;;;;;;;10.95;2.70;;;;;;;26.57;68.66;98698.47;5133819;27;20055;-78
2022/06/23 08:23:31;;;;;;;16.02;3.28;;;;;;;26.11;71.95;98694.38;5132885;27;20047;-78
2022/06/23 08:25:58;;;;;;;11.57;3.13;;;;;;;26.14;74.13;98677.06;5133498;27;20051;-78
2022/06/23 08:28:25;;;;;;;14.82;3.55;;;;;;;26.57;69.42;98688.16;5133578;27;20044;-78
2022/06/23 08:30:52;;;;;;;11.05;3.90;;;;;;;26.52;69.74;98682.63;5133519;27;20047;-78
2022/06/23 08:33:19;;;;;;;11.38;3.45;;;;;;;26.71;69.99;98690.19;5132670;27;20051;-78
2022/06/23 08:35:49;;;;;;;9.45;3.17;;;;;;;26.13;70.56;98687.38;5133074;27;20092;-78
2022/06/23 08:38:21;;;;;;;12.80;3.50;;;;;;;26.07;71.52;98676.59;5133547;27;20099;-78
2022/06/23 08:41:08;;;;;;;13.15;3.00;;;;;;;26.36;67.30;98670.06;5133327;27;20422;-78
2022/06/23 08:43:46;;;;;;;18.83;4.68;;;;;;;26.38;70.17;98677.00;5132406;27;20517;-78
2022/06/23 08:46:20;;;;;;;19.77;3.92;;;;;;;26.52;67.92;98676.25;5133239;27;20047;-78
2022/06/23 08:48:54;;;;;;;8.95;2.70;;;;;;;26.98;66.29;98687.50;5133078;27;20486;-78
2022/06/23 08:51:28;;;;;;;10.18;3.28;;;;;;;26.77;68.13;98681.44;5133205;27;20050;-78
2022/06/23 08:54:06;;;;;;;10.55;3.30;;;;;;;27.11;64.49;98663.56;5132189;27;20047;-78
2022/06/23 08:56:40;;;;;;;13.52;3.00;;;;;;;26.60;66.23;98662.47;5133016;27;20051;-78
2022/06/23 08:59:16;;;;;;;10.77;3.47;;;;;;;26.85;64.32;98654.81;5132982;27;20058;-78
2022/06/23 09:01:47;;;;;;;12.15;3.38;;;;;;;27.27;69.01;98664.13;5107224;27;20041;-78
2022/06/23 09:04:22;;;;;;;13.98;3.30;;;;;;;27.46;66.53;98658.50;5028433;28;20057;-78
2022/06/23 09:06:56;;;;;;;8.18;2.83;;;;;;;27.45;66.02;98665.22;5028999;28;20053;-78
2022/06/23 09:09:33;;;;;;;10.15;2.80;;;;;;;27.20;63.22;98656.16;5029121;28;20045;-78
2022/06/23 09:12:09;;;;;;;11.13;3.30;;;;;;;27.20;62.08;98652.53;5028595;28;20050;-78
2022/06/23 09:15:12;;;;;;;11.93;2.90;;;;;;;27.59;63.24;98656.00;5027317;28;20049;-78
2022/06/23 09:17:53;;;;;;;12.18;2.88;;;;;;;27.33;61.91;98654.53;5013687;28;20489;-78
2022/06/23 09:20:40;;;;;;;10.93;2.72;;;;;;;27.77;62.06;98648.66;5029011;28;20386;-78
2022/06/23 09:23:26;;;;;;;12.52;2.78;;;;;;;27.94;60.03;98648.84;5027935;28;20057;-78
2022/06/23 09:26:00;;;;;;;11.35;2.90;;;;;;;27.85;61.83;98639.53;5028786;28;20382;-78
2022/06/23 09:28:36;;;;;;;10.48;3.00;;;;;;;27.69;60.83;98648.25;5028950;28;20045;-78
2022/06/23 09:31:19;;;;;;;10.02;3.38;;;;;;;27.56;59.75;98646.28;5028450;28;20485;-78
2022/06/23 09:33:59;;;;;;;11.95;3.22;;;;;;;27.98;63.77;98637.91;5028019;28;20045;-78
2022/06/23 09:36:41;;;;;;;12.32;3.35;;;;;;;28.28;57.29;98630.81;5028632;28;20052;-78
2022/06/23 09:39:47;;;;;;;7.00;2.92;;;;;;;28.33;59.99;98613.91;5028288;28;20496;-78
2022/06/23 09:42:34;;;;;;;8.52;2.53;;;;;;;28.14;58.14;98630.00;4991375;28;20049;-78
2022/06/23 09:45:18;;;;;;;11.05;3.95;;;;;;;28.33;56.31;98605.50;5028366;28;20072;-78
2022/06/23 09:48:24;;;;;;;12.68;3.33;;;;;;;28.59;57.05;98628.13;5028605;28;20049;-78
2022/06/23 09:51:22;;;;;;;13.55;3.83;;;;;;;28.21;57.19;98622.00;5025959;28;20061;-78
2022/06/23 09:54:12;;;;;;;14.48;3.67;;;;;;;28.07;58.85;98617.28;5027699;28;20081;-78
2022/06/23 09:57:02;;;;;;;10.73;2.92;;;;;;;28.86;56.26;98623.53;5028474;28;20049;-78
2022/06/23 09:59:50;;;;;;;8.25;2.97;;;;;;;29.07;55.09;98614.59;5028398;28;20061;-78
2022/06/23 10:02:35;;;;;;;15.05;3.38;;;;;;;28.66;53.55;98624.88;5074355;28;20100;-78
2022/06/23 10:05:18;;;;;;;7.68;2.95;;;;;;;28.49;55.54;98614.38;5132259;27;20047;-78
2022/06/23 10:08:07;;;;;;;14.27;3.30;;;;;;;28.02;57.20;98613.81;5132282;27;20055;-78
2022/06/23 10:10:55;;;;;;;11.63;3.20;;;;;;;28.33;54.51;98611.09;5129874;27;20050;-78
2022/06/23 10:13:38;;;;;;;13.27;3.65;;;;;;;28.64;54.80;98602.00;5131421;27;20054;-78
2022/06/23 10:16:33;;;;;;;10.07;3.08;;;;;;;29.23;56.94;98598.25;5130286;27;20060;-78
2022/06/23 10:19:28;;;;;;;8.90;3.72;;;;;;;29.50;53.41;98600.00;5130394;27;20391;-78
2022/06/23 10:22:17;;;;;;;12.57;3.67;;;;;;;29.31;50.18;98600.25;5132068;27;20144;-78
2022/06/23 10:24:58;;;;;;;10.45;2.50;;;;;;;29.06;49.94;98594.19;5128735;27;20054;-78
2022/06/23 10:27:43;;;;;;;12.38;2.38;;;;;;;29.38;52.45;98581.00;5132125;27;20486;-78
2022/06/23 10:30:19;;;;;;;15.80;3.30;;;;;;;29.55;50.52;98583.03;5132021;27;20071;-78
2022/06/23 10:33:28;;;;;;;11.30;2.70;;;;;;;29.91;50.87;98584.78;5131172;27;20047;-78
2022/06/23 10:36:16;;;;;;;9.82;2.78;;;;;;;29.88;49.17;98588.25;5102001;27;20054;-78
2022/06/23 10:38:57;;;;;;;10.27;3.03;;;;;;;29.92;48.99;98564.03;5131896;27;20062;-78
2022/06/23 10:41:45;;;;;;;13.18;2.88;;;;;;;30.38;47.00;98570.13;5132132;27;20043;-78
2022/06/23 10:44:35;;;;;;;12.95;2.70;;;;;;;30.42;48.38;98576.75;5131072;27;20054;-78
2022/06/23 10:47:14;;;;;;;8.15;2.65;;;;;;;30.49;45.63;98574.28;5131551;27;20043;-78
2022/06/23 10:50:09;;;;;;;11.50;3.13;;;;;;;30.23;46.42;98568.69;5132013;27;20051;-78
2022/06/23 10:53:02;;;;;;;8.82;2.33;;;;;;;30.26;47.04;98559.59;5131128;27;20422;-78
2022/06/23 10:55:49;;;;;;;8.18;2.55;;;;;;;30.35;45.73;98551.16;5135128;27;20477;-78
2022/06/23 10:58:55;;;;;;;18.77;2.97;;;;;;;30.78;45.30;98544.69;5135347;27;20410;-78
2022/06/23 11:01:58;;;;;;;10.43;3.50;;;;;;;30.82;44.41;98542.88;5130842;27;20126;-78
2022/06/23 11:04:49;;;;;;;10.40;2.30;;;;;;;31.11;45.51;98555.34;5030647;28;20409;-78
2022/06/23 11:07:31;;;;;;;12.68;2.92;;;;;;;31.57;44.59;98548.03;5030625;28;20057;-78
2022/06/23 11:10:08;;;;;;;7.90;2.70;;;;;;;31.89;44.52;98556.91;5030798;28;20050;-78
2022/06/23 11:12:51;;;;;;;6.28;2.83;;;;;;;31.75;42.88;98554.38;5030095;28;20064;-78
2022/06/23 11:15:28;;;;;;;7.00;3.10;;;;;;;31.85;43.84;98555.13;5029174;28;20485;-78
2022/06/23 11:18:07;;;;;;;10.65;2.65;;;;;;;31.76;42.76;98549.56;5030581;28;20140;-78
2022/06/23 11:20:45;;;;;;;11.93;3.67;;;;;;;31.83;43.91;98549.03;5030906;28;20056;-78
2022/06/23 11:23:24;;;;;;;14.05;3.45;;;;;;;31.47;41.66;98533.53;5029813;28;20061;-78
2022/06/23 11:25:57;;;;;;;11.18;3.00;;;;;;;31.19;42.53;98515.16;5030134;28;20056;-78
2022/06/23 11:28:36;;;;;;;11.05;3.42;;;;;;;31.16;42.12;98498.19;5030530;28;20077;-78
2022/06/23 11:31:21;;;;;;;9.75;2.80;;;;;;;31.37;44.10;98518.69;5030138;28;20394;-78
2022/06/23 11:34:03;;;;;;;9.30;2.72;;;;;;;31.36;42.08;98514.28;5029806;28;20049;-78
2022/06/23 11:36:50;;;;;;;9.80;3.50;;;;;;;31.57;44.13;98511.53;5030281;28;20049;-78
2022/06/23 11:39:43;;;;;;;7.68;3.47;;;;;;;31.57;42.34;98503.09;5030077;28;20057;-78
2022/06/23 11:42:27;;;;;;;10.57;3.00;;;;;;;31.91;41.28;98509.59;5029339;28;20052;-78
2022/06/23 11:45:07;;;;;;;8.93;2.47;;;;;;;31.81;39.69;98500.78;5030256;28;20053;-78
2022/06/23 11:47:43;;;;;;;14.30;3.00;;;;;;;32.01;39.14;98499.94;5030323;28;20072;-78
2022/06/23 11:50:17;;;;;;;10.15;2.95;;;;;;;32.05;39.16;98486.88;5029930;28;20056;-78
2022/06/23 11:52:59;;;;;;;14.85;3.50;;;;;;;31.94;38.26;98499.69;5029496;28;20061;-78
2022/06/23 11:55:35;;;;;;;11.82;3.40;;;;;;;31.61;40.06;98491.19;5030019;28;20060;-78
2022/06/23 11:58:14;;;;;;;13.60;3.20;;;;;;;31.97;40.55;98479.31;5030012;28;20049;-78
2022/06/23 12:00:53;;;;;;;10.98;3.10;;;;;;;31.57;38.73;98491.03;5030132;28;20050;-78
2022/06/23 12:03:34;;;;;;;11.05;3.35;;;;;;;31.54;38.88;98477.63;5114465;27;20478;-78
2022/06/23 12:06:10;;;;;;;8.85;3.08;;;;;;;31.97;39.38;98461.63;5133673;27;20047;-78
2022/06/23 12:08:49;;;;;;;11.65;3.22;;;;;;;32.27;40.60;98471.63;5133973;27;20054;-78
2022/06/23 12:11:16;;;;;;;13.55;3.42;;;;;;;32.21;39.56;98478.63;5133750;27;20444;-78
2022/06/23 12:13:43;;;;;;;10.65;3.22;;;;;;;32.26;39.61;98472.81;5133178;27;20047;-78
2022/06/23 12:16:11;;;;;;;9.18;3.45;;;;;;;32.66;38.69;98484.66;5131725;27;20050;-78
2022/06/23 12:18:46;;;;;;;13.13;4.32;;;;;;;32.91;39.13;98469.44;5133745;27;20058;-78
2022/06/23 12:21:26;;;;;;;10.73;3.88;;;;;;;32.90;37.66;98469.78;5133784;27;20050;-78